Time;durP1;ratioP1;P1;durP2;ratioP2;P2;SDS_P1;SDS_P2;PMS_P1;PMS_P2;Temp;Humidity;BMP_temperature;BMP_pressure;BME280_temperature;BME280_humidity;BME280_pressure;Samples;Min_cycle;Max_cycle;Signal;HPM_P1;HPM_P2
2022/04/03 12:01:50;;;;;;;5.35;1.60;;;7.10;71.10;;;;;;5069766;28;20878;-48
2022/04/03 12:04:18;;;;;;;4.75;1.90;;;7.10;68.90;;;;;;5067598;28;20448;-43
2022/04/03 12:06:45;;;;;;;3.63;1.58;;;7.10;70.40;;;;;;5070360;28;20040;-45
2022/04/03 12:09:12;;;;;;;3.03;1.40;;;7.20;67.70;;;;;;5067701;28;20048;-45
2022/04/03 12:11:38;;;;;;;2.33;1.27;;;7.40;68.30;;;;;;5050864;28;20112;-45
2022/04/03 12:14:05;;;;;;;3.13;1.42;;;7.60;65.00;;;;;;5050399;28;20059;-46
2022/04/03 12:16:32;;;;;;;2.28;1.27;;;7.80;64.60;;;;;;5050224;28;20065;-48
2022/04/03 12:18:59;;;;;;;3.00;1.10;;;8.00;64.40;;;;;;5080920;28;20053;-43
2022/04/03 12:21:25;;;;;;;2.53;1.20;;;8.10;62.50;;;;;;5048660;28;20541;-48
2022/04/03 12:23:52;;;;;;;4.93;1.40;;;8.20;65.40;;;;;;5050076;28;20033;-47
2022/04/03 12:26:20;;;;;;;4.57;1.50;;;8.40;63.60;;;;;;5048950;28;20041;-47
2022/04/03 12:28:47;;;;;;;4.10;1.38;;;8.60;64.50;;;;;;5050260;28;20049;-46
2022/04/03 12:31:14;;;;;;;2.15;1.15;;;8.70;62.60;;;;;;5049750;28;20041;-50
2022/04/03 12:33:41;;;;;;;3.42;1.70;;;8.90;62.90;;;;;;5049728;28;20476;-44
2022/04/03 12:36:08;;;;;;;2.78;1.30;;;9.10;63.20;;;;;;5049529;28;20412;-42
2022/04/03 12:38:45;;;;;;;5.45;1.90;;;9.10;56.50;;;;;;5049997;28;20041;-47
2022/04/03 12:41:12;;;;;;;3.20;1.73;;;8.90;56.70;;;;;;5048462;28;20423;-43
2022/04/03 12:43:39;;;;;;;3.45;1.42;;;8.90;58.10;;;;;;5049669;28;20108;-49
2022/04/03 12:46:05;;;;;;;5.10;1.50;;;8.80;56.90;;;;;;5049516;28;20087;-47
2022/04/03 12:48:33;;;;;;;3.92;1.52;;;8.80;59.30;;;;;;5049970;28;20396;-53
2022/04/03 12:51:00;;;;;;;2.95;1.67;;;8.80;60.00;;;;;;5028964;28;20111;-48
2022/04/03 12:53:28;;;;;;;3.58;1.20;;;8.80;59.60;;;;;;5029637;28;20068;-48
2022/04/03 12:55:56;;;;;;;3.45;1.80;;;8.80;58.50;;;;;;5029435;28;20076;-47
2022/04/03 12:58:28;;;;;;;3.70;1.58;;;8.80;57.50;;;;;;5029220;28;20046;-46
2022/04/03 13:00:57;;;;;;;4.03;1.50;;;8.90;58.50;;;;;;5029095;28;20420;-48
2022/04/03 13:03:24;;;;;;;3.05;1.50;;;8.90;58.10;;;;;;5044288;28;20120;-47
2022/04/03 13:05:51;;;;;;;1.90;1.40;;;8.90;58.40;;;;;;5049168;28;20076;-46
2022/04/03 13:08:18;;;;;;;3.53;1.58;;;8.90;58.60;;;;;;5049750;28;20065;-53
2022/04/03 13:10:44;;;;;;;3.83;1.60;;;9.00;57.10;;;;;;5047592;28;20092;-51
2022/04/03 13:13:11;;;;;;;3.55;1.52;;;9.10;55.90;;;;;;5034554;28;20068;-48
2022/04/03 13:15:38;;;;;;;3.13;1.67;;;9.10;56.50;;;;;;5035639;28;20053;-48
2022/04/03 13:18:04;;;;;;;5.32;2.03;;;9.10;54.90;;;;;;5035753;28;20095;-50
2022/04/03 13:20:31;;;;;;;4.00;1.80;;;9.20;58.60;;;;;;5035517;28;20123;-50
2022/04/03 13:22:58;;;;;;;4.32;1.95;;;9.20;55.70;;;;;;5035504;28;20050;-53
2022/04/03 13:25:25;;;;;;;3.40;1.88;;;9.10;55.20;;;;;;5035495;28;20072;-50
2022/04/03 13:27:51;;;;;;;3.50;1.80;;;9.00;57.20;;;;;;5035414;28;20111;-47
2022/04/03 13:30:18;;;;;;;2.85;1.67;;;8.90;56.40;;;;;;5035302;28;20048;-45
2022/04/03 13:32:45;;;;;;;3.17;1.70;;;8.90;56.80;;;;;;5035396;28;20144;-47
2022/04/03 13:35:12;;;;;;;4.38;2.38;;;8.90;57.80;;;;;;5035694;28;20422;-46
2022/04/03 13:37:39;;;;;;;4.13;2.30;;;8.90;57.20;;;;;;5035242;28;20080;-52
2022/04/03 13:40:05;;;;;;;3.45;1.98;;;8.80;58.20;;;;;;5035730;28;20041;-48
2022/04/03 13:42:32;;;;;;;4.60;2.00;;;8.70;55.30;;;;;;5035160;28;20041;-51
2022/04/03 13:44:59;;;;;;;4.50;2.30;;;8.70;58.50;;;;;;5035149;28;20038;-49
2022/04/03 13:47:26;;;;;;;5.38;2.30;;;8.70;59.50;;;;;;5034243;28;20053;-47
2022/04/03 13:49:53;;;;;;;2.85;1.77;;;8.70;58.50;;;;;;5035437;28;20461;-49
2022/04/03 13:52:20;;;;;;;3.22;1.90;;;8.70;57.70;;;;;;5035091;28;20064;-45
2022/04/03 13:54:47;;;;;;;5.57;2.30;;;8.80;59.00;;;;;;5035620;28;20104;-47
2022/04/03 13:57:13;;;;;;;4.18;2.42;;;8.70;58.40;;;;;;5035089;28;20116;-48
2022/04/03 13:59:40;;;;;;;5.20;2.25;;;8.80;60.30;;;;;;5035237;28;20037;-47
2022/04/03 14:02:07;;;;;;;3.22;2.30;;;8.80;60.00;;;;;;5033633;28;20085;-46
2022/04/03 14:04:34;;;;;;;6.90;2.70;;;8.80;59.40;;;;;;5033493;28;20037;-43
2022/04/03 14:07:00;;;;;;;3.60;2.40;;;8.90;58.50;;;;;;5034708;28;20095;-45
2022/04/03 14:09:27;;;;;;;2.95;2.40;;;8.90;59.80;;;;;;5034565;28;20534;-49
2022/04/03 14:11:54;;;;;;;6.28;3.08;;;9.00;58.30;;;;;;5033489;28;20073;-45
2022/04/03 14:14:21;;;;;;;3.97;2.80;;;9.10;58.20;;;;;;5034668;28;20507;-45
2022/04/03 14:16:48;;;;;;;3.97;2.55;;;9.10;57.50;;;;;;5034727;28;20054;-48
2022/04/03 14:19:15;;;;;;;3.50;2.67;;;9.20;58.00;;;;;;5034411;28;20559;-47
2022/04/03 14:21:42;;;;;;;4.10;2.70;;;9.30;58.50;;;;;;5034587;28;20029;-47
2022/04/03 14:24:09;;;;;;;5.50;3.13;;;9.40;60.20;;;;;;5032266;28;20037;-47
2022/04/03 14:26:36;;;;;;;8.10;3.00;;;9.50;58.70;;;;;;5034464;28;20478;-50
2022/04/03 14:29:04;;;;;;;5.00;3.20;;;9.60;57.80;;;;;;5034696;28;20041;-48
2022/04/03 14:31:30;;;;;;;5.53;3.13;;;9.60;57.90;;;;;;5034265;28;20045;-50
2022/04/03 14:33:57;;;;;;;5.38;2.95;;;9.60;55.30;;;;;;5034800;28;20396;-49
2022/04/03 14:36:24;;;;;;;6.00;3.42;;;9.40;54.50;;;;;;5034771;28;20087;-49
2022/04/03 14:38:53;;;;;;;5.53;2.95;;;9.40;56.70;;;;;;5034540;28;20046;-47
2022/04/03 14:41:20;;;;;;;4.43;3.10;;;9.20;54.70;;;;;;5034087;28;20102;-50
2022/04/03 14:43:47;;;;;;;5.07;2.72;;;9.20;56.90;;;;;;5034424;28;20041;-51
2022/04/03 14:46:15;;;;;;;4.82;2.42;;;9.10;54.10;;;;;;5034037;28;20041;-53
2022/04/03 14:48:42;;;;;;;4.55;3.03;;;9.00;55.30;;;;;;5032991;28;20041;-48
2022/04/03 14:51:08;;;;;;;7.55;4.18;;;8.90;57.20;;;;;;5013389;28;20080;-46
2022/04/03 14:53:35;;;;;;;4.13;2.90;;;8.80;56.10;;;;;;5014301;28;20057;-47
2022/04/03 14:56:03;;;;;;;4.90;3.00;;;8.80;56.70;;;;;;5014378;28;20038;-50
2022/04/03 14:58:30;;;;;;;6.75;3.00;;;8.70;57.60;;;;;;5014206;28;20404;-48
2022/04/03 15:00:57;;;;;;;4.75;2.97;;;8.70;56.60;;;;;;5014128;28;20434;-47
2022/04/03 15:03:23;;;;;;;8.13;4.40;;;8.70;57.30;;;;;;5026842;28;20053;-48
2022/04/03 15:05:51;;;;;;;5.93;3.55;;;8.70;57.60;;;;;;5034447;28;20034;-49
2022/04/03 15:08:19;;;;;;;4.03;2.70;;;8.70;56.20;;;;;;5033797;28;20045;-45
2022/04/03 15:10:46;;;;;;;4.03;2.20;;;8.80;56.30;;;;;;5033543;28;20089;-47
2022/04/03 15:13:13;;;;;;;3.15;1.90;;;8.80;55.80;;;;;;5032555;28;20512;-49
2022/04/03 15:15:40;;;;;;;4.47;1.92;;;8.80;54.40;;;;;;5033557;28;20045;-50
2022/04/03 15:18:07;;;;;;;6.68;3.38;;;8.80;56.20;;;;;;5033331;28;20048;-49
2022/04/03 15:20:34;;;;;;;8.48;4.10;;;8.70;56.50;;;;;;5033507;28;20045;-50
2022/04/03 15:23:01;;;;;;;3.92;2.42;;;8.70;57.90;;;;;;5033663;28;20041;-47
2022/04/03 15:25:28;;;;;;;5.13;2.88;;;8.80;57.90;;;;;;5033838;28;20064;-43
2022/04/03 15:27:54;;;;;;;4.38;2.60;;;8.90;56.60;;;;;;5033936;28;20099;-49
2022/04/03 15:30:21;;;;;;;3.38;2.53;;;9.00;57.10;;;;;;5033488;28;20045;-49
2022/04/03 15:32:48;;;;;;;5.13;2.90;;;9.10;58.10;;;;;;5033923;28;20049;-46
2022/04/03 15:35:15;;;;;;;3.83;2.45;;;9.20;56.70;;;;;;5033560;28;20103;-46
2022/04/03 15:37:42;;;;;;;5.00;2.50;;;9.30;57.50;;;;;;5033434;28;20045;-46
2022/04/03 15:40:08;;;;;;;4.18;2.00;;;9.40;55.80;;;;;;5033444;28;20346;-46
2022/04/03 15:42:36;;;;;;;3.83;2.28;;;9.40;54.80;;;;;;5033474;28;20052;-50
2022/04/03 15:45:02;;;;;;;4.15;2.17;;;9.40;55.00;;;;;;5033585;28;20064;-45
2022/04/03 15:47:30;;;;;;;4.68;2.30;;;9.50;54.10;;;;;;5033089;28;20492;-52
2022/04/03 15:49:59;;;;;;;5.78;2.13;;;9.50;54.10;;;;;;5033183;28;20047;-50
2022/04/03 15:52:26;;;;;;;3.75;2.20;;;9.50;54.10;;;;;;5031660;28;20408;-46
2022/04/03 15:54:53;;;;;;;5.00;2.80;;;9.50;54.40;;;;;;5033424;28;20037;-49
2022/04/03 15:57:20;;;;;;;6.22;3.67;;;9.50;52.30;;;;;;5033274;28;20046;-46
2022/04/03 15:59:52;;;;;;;5.38;2.92;;;9.40;52.80;;;;;;5033513;28;20042;-48
2022/04/03 16:02:19;;;;;;;4.28;3.08;;;9.30;50.90;;;;;;5024720;28;20441;-50
2022/04/03 16:04:46;;;;;;;8.45;3.50;;;9.30;52.20;;;;;;5013399;28;20045;-47
2022/04/03 16:07:13;;;;;;;4.10;2.40;;;9.30;52.40;;;;;;5013626;28;20046;-48
2022/04/03 16:09:39;;;;;;;6.60;4.10;;;9.30;51.50;;;;;;5031091;28;20481;-44
2022/04/03 16:12:06;;;;;;;7.47;3.50;;;9.20;52.00;;;;;;5033670;28;20050;-43
2022/04/03 16:14:34;;;;;;;4.57;2.60;;;9.20;52.90;;;;;;5033392;28;20048;-46
2022/04/03 16:17:00;;;;;;;5.38;3.30;;;9.10;52.60;;;;;;5032848;28;20120;-45
2022/04/03 16:19:27;;;;;;;4.18;2.63;;;9.10;54.70;;;;;;5032657;28;20404;-49
2022/04/03 16:21:58;;;;;;;4.35;2.60;;;9.00;53.20;;;;;;5032635;28;20124;-52
2022/04/03 16:24:25;;;;;;;4.53;2.58;;;9.00;53.30;;;;;;5032824;28;20396;-50
2022/04/03 16:26:54;;;;;;;4.43;2.60;;;8.90;53.30;;;;;;5032715;28;20041;-48
2022/04/03 16:29:21;;;;;;;4.05;2.20;;;8.90;53.30;;;;;;5032653;28;20041;-44
2022/04/03 16:31:54;;;;;;;3.67;2.75;;;8.90;54.20;;;;;;5032751;28;20053;-51
2022/04/03 16:34:21;;;;;;;5.57;2.40;;;8.90;54.10;;;;;;5032978;28;20045;-49
2022/04/03 16:36:48;;;;;;;5.70;2.60;;;8.80;54.70;;;;;;5032069;28;20053;-46
2022/04/03 16:39:15;;;;;;;6.30;3.25;;;8.90;56.20;;;;;;5033141;28;20061;-45
2022/04/03 16:41:42;;;;;;;8.00;4.03;;;8.90;56.30;;;;;;5032993;28;20496;-49
2022/04/03 16:44:08;;;;;;;9.25;4.30;;;8.90;57.00;;;;;;5032584;28;20459;-48
2022/04/03 16:46:35;;;;;;;4.90;2.63;;;8.90;57.90;;;;;;5033170;28;20120;-50
2022/04/03 16:49:02;;;;;;;5.50;3.20;;;8.90;56.80;;;;;;5036637;28;20033;-49
2022/04/03 16:51:30;;;;;;;4.45;2.95;;;8.90;57.90;;;;;;5036608;28;20077;-52
2022/04/03 16:53:57;;;;;;;4.40;2.88;;;8.90;58.40;;;;;;5036245;28;20132;-50
2022/04/03 16:56:23;;;;;;;5.93;2.90;;;8.90;58.70;;;;;;5036025;28;20099;-46
2022/04/03 16:58:51;;;;;;;6.65;3.08;;;8.80;59.50;;;;;;5036015;28;20103;-45
2022/04/03 17:01:18;;;;;;;6.32;3.20;;;8.80;59.90;;;;;;5035902;28;20249;-44
2022/04/03 17:03:45;;;;;;;4.43;2.40;;;8.80;61.20;;;;;;5034418;28;20524;-43
2022/04/03 17:06:12;;;;;;;4.28;2.83;;;8.80;61.50;;;;;;5036464;28;20069;-46
2022/04/03 17:08:39;;;;;;;4.53;2.78;;;8.80;61.90;;;;;;5033740;28;20057;-47
2022/04/03 17:11:05;;;;;;;4.20;2.60;;;8.80;62.30;;;;;;5035669;28;20049;-41
2022/04/03 17:13:32;;;;;;;4.43;2.35;;;8.80;62.80;;;;;;5035823;28;20041;-47
2022/04/03 17:15:59;;;;;;;6.55;2.75;;;8.80;62.30;;;;;;5034687;28;20045;-43
2022/04/03 17:18:26;;;;;;;6.00;3.22;;;8.80;62.70;;;;;;5035551;28;20045;-54
2022/04/03 17:20:52;;;;;;;5.60;3.70;;;8.80;63.60;;;;;;5034308;28;20037;-50
2022/04/03 17:23:19;;;;;;;3.92;2.40;;;8.80;63.30;;;;;;5035486;28;20041;-46
2022/04/03 17:25:49;;;;;;;6.78;2.60;;;8.70;62.90;;;;;;5035374;28;20539;-46
2022/04/03 17:28:16;;;;;;;5.22;2.30;;;8.70;63.40;;;;;;5034509;28;20132;-48
2022/04/03 17:30:42;;;;;;;5.13;2.47;;;8.60;63.90;;;;;;5035802;28;20115;-50
2022/04/03 17:33:09;;;;;;;3.92;2.45;;;8.60;63.90;;;;;;5035749;28;20041;-47
2022/04/03 17:35:36;;;;;;;4.38;2.50;;;8.60;63.90;;;;;;5035893;28;20378;-48
2022/04/03 17:38:03;;;;;;;4.35;2.70;;;8.60;63.60;;;;;;5033962;28;20049;-46
2022/04/03 17:40:29;;;;;;;4.35;2.88;;;8.60;64.10;;;;;;5034134;28;20449;-52
2022/04/03 17:42:56;;;;;;;6.38;2.70;;;8.60;65.00;;;;;;5035591;28;20049;-47
2022/04/03 17:45:23;;;;;;;4.57;3.28;;;8.60;64.40;;;;;;5035950;28;20045;-47
2022/04/03 17:47:50;;;;;;;4.63;3.33;;;8.50;63.40;;;;;;5034661;28;20137;-42
2022/04/03 17:50:17;;;;;;;5.78;3.28;;;8.50;63.30;;;;;;5034982;28;20068;-46
2022/04/03 17:52:44;;;;;;;6.22;2.95;;;8.50;64.30;;;;;;5035150;28;20053;-49
2022/04/03 17:55:11;;;;;;;5.55;2.70;;;8.50;65.80;;;;;;5035437;28;20535;-42
2022/04/03 17:57:38;;;;;;;5.28;2.95;;;8.50;65.20;;;;;;5035224;28;20045;-47
2022/04/03 18:00:05;;;;;;;6.60;3.67;;;8.50;66.20;;;;;;5035248;28;20045;-48
2022/04/03 18:02:37;;;;;;;5.60;3.60;;;8.50;66.40;;;;;;5033607;28;20045;-47
2022/04/03 18:05:04;;;;;;;6.10;3.85;;;8.40;66.40;;;;;;5035447;28;20120;-48
2022/04/03 18:07:31;;;;;;;11.65;5.53;;;8.40;66.50;;;;;;5029136;28;20038;-46
2022/04/03 18:09:58;;;;;;;6.25;3.55;;;8.40;66.40;;;;;;5015391;28;20064;-47
2022/04/03 18:12:26;;;;;;;6.25;4.10;;;8.30;66.50;;;;;;5015272;28;20076;-47
2022/04/03 18:14:53;;;;;;;7.88;4.18;;;8.40;66.20;;;;;;5035134;28;20038;-47
2022/04/03 18:17:20;;;;;;;5.65;3.90;;;8.30;66.50;;;;;;5035505;28;20100;-46
2022/04/03 18:19:57;;;;;;;9.68;6.40;;;8.30;67.00;;;;;;5034784;28;20467;-45
2022/04/03 18:22:24;;;;;;;6.20;4.32;;;8.20;66.70;;;;;;5034576;28;20041;-45
2022/04/03 18:24:52;;;;;;;6.70;4.10;;;8.20;66.90;;;;;;5034870;28;20451;-47
2022/04/03 18:27:19;;;;;;;7.03;4.05;;;8.20;67.10;;;;;;5034830;28;20049;-47
2022/04/03 18:29:46;;;;;;;4.90;3.30;;;8.10;67.50;;;;;;5034248;28;20046;-47
2022/04/03 18:32:13;;;;;;;6.35;3.60;;;8.00;67.50;;;;;;5033483;28;20060;-46
2022/04/03 18:34:41;;;;;;;6.22;3.90;;;7.90;67.50;;;;;;5034576;28;20152;-42
2022/04/03 18:37:08;;;;;;;5.00;3.70;;;7.90;68.40;;;;;;5034400;28;20041;-42
2022/04/03 18:39:34;;;;;;;6.78;4.20;;;7.80;68.80;;;;;;5034561;28;20050;-43
2022/04/03 18:42:01;;;;;;;8.13;4.60;;;7.80;69.10;;;;;;5031729;28;20047;-49
2022/04/03 18:44:31;;;;;;;8.45;4.25;;;7.70;69.70;;;;;;5034644;28;20088;-50
2022/04/03 18:46:58;;;;;;;5.80;4.05;;;7.70;69.70;;;;;;5034166;28;20045;-44
2022/04/03 18:49:25;;;;;;;6.97;4.35;;;7.60;70.40;;;;;;5033986;28;20476;-46
2022/04/03 18:51:51;;;;;;;5.30;3.80;;;7.60;70.50;;;;;;5034000;28;20041;-46
2022/04/03 18:54:19;;;;;;;7.57;4.50;;;7.60;71.40;;;;;;5033979;28;20060;-49
2022/04/03 18:56:49;;;;;;;6.75;4.22;;;7.50;71.80;;;;;;5032928;28;20384;-45
2022/04/03 18:59:18;;;;;;;6.05;4.03;;;7.50;72.10;;;;;;5033918;28;20401;-50
2022/04/03 19:01:44;;;;;;;6.80;3.80;;;7.40;72.50;;;;;;5026872;28;20069;-50
2022/04/03 19:04:14;;;;;;;6.70;4.10;;;7.40;73.00;;;;;;5045787;28;20141;-45
2022/04/03 19:06:41;;;;;;;6.57;4.43;;;7.40;72.80;;;;;;5013947;28;20069;-47
2022/04/03 19:09:08;;;;;;;8.60;4.47;;;7.30;73.40;;;;;;5013680;28;20046;-50
2022/04/03 19:11:35;;;;;;;6.53;4.13;;;7.30;73.60;;;;;;5013734;28;20084;-49
2022/04/03 19:14:01;;;;;;;8.65;4.88;;;7.30;73.90;;;;;;5023937;28;20407;-45
2022/04/03 19:16:28;;;;;;;13.23;6.22;;;7.30;74.20;;;;;;5033692;28;20050;-49
2022/04/03 19:18:55;;;;;;;11.65;6.20;;;7.30;74.50;;;;;;5033716;28;20047;-49
2022/04/03 19:21:22;;;;;;;7.40;5.38;;;7.30;75.00;;;;;;5033553;28;20072;-42
2022/04/03 19:23:51;;;;;;;12.13;6.40;;;7.30;74.40;;;;;;5033757;28;20150;-51
2022/04/03 19:26:18;;;;;;;11.80;8.13;;;7.20;75.00;;;;;;5032428;28;20045;-47
2022/04/03 19:28:45;;;;;;;8.90;7.03;;;7.20;75.30;;;;;;5033496;28;20434;-49
2022/04/03 19:31:14;;;;;;;11.60;6.22;;;7.20;75.30;;;;;;5032290;28;20042;-52
2022/04/03 19:33:41;;;;;;;11.85;8.00;;;7.20;75.60;;;;;;5033345;28;20041;-49
2022/04/03 19:36:08;;;;;;;12.35;7.47;;;7.20;75.30;;;;;;5033452;28;20132;-48
2022/04/03 19:38:35;;;;;;;18.67;9.82;;;7.10;75.70;;;;;;5032075;28;20041;-46
2022/04/03 19:41:02;;;;;;;11.73;7.82;;;7.10;76.00;;;;;;5033429;28;20492;-46
2022/04/03 19:43:28;;;;;;;12.23;7.18;;;7.00;76.20;;;;;;5033109;28;20044;-47
2022/04/03 19:45:55;;;;;;;10.68;6.28;;;7.00;76.70;;;;;;5032323;28;20087;-50
2022/04/03 19:48:23;;;;;;;11.50;6.50;;;6.90;76.90;;;;;;5032420;28;20049;-50
2022/04/03 19:50:51;;;;;;;7.70;5.90;;;6.80;76.70;;;;;;5033208;28;20056;-52
2022/04/03 19:53:18;;;;;;;12.52;7.22;;;6.80;76.80;;;;;;5033083;28;20507;-46
2022/04/03 19:55:45;;;;;;;10.13;7.72;;;6.70;77.70;;;;;;5033470;28;20037;-46
2022/04/03 19:58:17;;;;;;;15.20;11.35;;;6.60;77.80;;;;;;5033567;28;20473;-48
2022/04/03 20:00:44;;;;;;;16.85;10.77;;;6.60;78.20;;;;;;5031834;28;20052;-48
2022/04/03 20:03:11;;;;;;;13.82;10.55;;;6.50;78.60;;;;;;5031537;28;20057;-46
2022/04/03 20:05:38;;;;;;;11.55;8.38;;;6.40;79.10;;;;;;5032988;28;20065;-42
2022/04/03 20:08:05;;;;;;;7.85;6.18;;;6.40;79.10;;;;;;5033016;28;20124;-44
2022/04/03 20:10:31;;;;;;;9.85;7.22;;;6.40;79.20;;;;;;5031867;28;20053;-47
2022/04/03 20:12:58;;;;;;;10.18;6.40;;;6.30;79.30;;;;;;5031936;28;20041;-46
2022/04/03 20:15:25;;;;;;;10.95;6.90;;;6.30;79.60;;;;;;5033218;28;20056;-45
2022/04/03 20:17:52;;;;;;;14.68;9.48;;;6.30;80.00;;;;;;5032912;28;20044;-47
2022/04/03 20:20:18;;;;;;;12.30;7.82;;;6.20;80.20;;;;;;5032718;28;20505;-47
2022/04/03 20:22:45;;;;;;;12.05;8.05;;;6.20;79.70;;;;;;5064964;28;20199;-45
2022/04/03 20:25:12;;;;;;;13.73;7.68;;;6.10;80.10;;;;;;5036740;28;20038;-51
2022/04/03 20:27:39;;;;;;;11.38;7.13;;;6.00;80.20;;;;;;5036832;28;20045;-48
2022/04/03 20:30:06;;;;;;;12.90;7.75;;;6.00;80.40;;;;;;5036689;28;20144;-47
2022/04/03 20:32:33;;;;;;;11.18;7.72;;;6.00;80.70;;;;;;5036823;28;20041;-44
2022/04/03 20:34:59;;;;;;;12.70;7.50;;;5.90;80.60;;;;;;5036426;28;20496;-44
2022/04/03 20:37:26;;;;;;;15.55;9.30;;;5.80;80.60;;;;;;5036937;28;20099;-50
2022/04/03 20:39:58;;;;;;;11.57;7.35;;;5.80;80.80;;;;;;5035537;28;20053;-47
2022/04/03 20:42:25;;;;;;;9.35;5.63;;;5.80;81.30;;;;;;5036478;28;20037;-48
2022/04/03 20:44:52;;;;;;;10.88;6.20;;;5.80;80.90;;;;;;5036488;28;20038;-50
2022/04/03 20:47:19;;;;;;;12.13;6.07;;;5.80;81.00;;;;;;5036746;28;20484;-51
2022/04/03 20:49:46;;;;;;;7.75;5.45;;;5.80;81.70;;;;;;5036485;28;20049;-47
2022/04/03 20:52:13;;;;;;;7.97;4.95;;;5.80;81.20;;;;;;5036338;28;20349;-49
2022/04/03 20:54:40;;;;;;;6.97;4.75;;;5.80;80.80;;;;;;5036588;28;20049;-48
2022/04/03 20:57:07;;;;;;;6.45;4.85;;;5.80;80.30;;;;;;5035307;28;20041;-51
2022/04/03 20:59:34;;;;;;;7.20;5.00;;;5.80;80.50;;;;;;5035104;28;20041;-47
2022/04/03 21:02:00;;;;;;;8.02;5.35;;;5.80;81.00;;;;;;5035916;28;20069;-50
2022/04/03 21:04:27;;;;;;;7.70;4.35;;;5.80;81.00;;;;;;5034928;28;20053;-48
2022/04/03 21:06:54;;;;;;;6.22;4.35;;;5.80;80.70;;;;;;5036193;28;20072;-50
2022/04/03 21:09:21;;;;;;;6.60;4.65;;;5.80;80.80;;;;;;5036424;28;20041;-47
2022/04/03 21:11:48;;;;;;;9.35;5.13;;;5.80;80.70;;;;;;5036177;28;20061;-45
2022/04/03 21:14:14;;;;;;;5.88;3.92;;;5.80;80.40;;;;;;5035932;28;20041;-49
2022/04/03 21:16:41;;;;;;;7.75;4.25;;;5.70;80.20;;;;;;5034853;28;20128;-46
2022/04/03 21:19:08;;;;;;;8.48;4.25;;;5.70;80.30;;;;;;5035848;28;20046;-45
2022/04/03 21:21:35;;;;;;;6.07;3.80;;;5.70;80.60;;;;;;5035963;28;20038;-47
2022/04/03 21:24:02;;;;;;;6.10;3.80;;;5.70;80.60;;;;;;5018823;28;20037;-47
2022/04/03 21:26:28;;;;;;;9.60;5.45;;;5.60;80.60;;;;;;5016287;28;20388;-47
2022/04/03 21:28:55;;;;;;;9.55;4.65;;;5.60;80.50;;;;;;5016375;28;20038;-44
2022/04/03 21:31:23;;;;;;;5.97;4.40;;;5.60;80.80;;;;;;5015632;28;20444;-44
2022/04/03 21:33:50;;;;;;;7.43;4.85;;;5.60;80.30;;;;;;5015445;28;20049;-48
2022/04/03 21:36:17;;;;;;;9.13;4.18;;;5.60;80.30;;;;;;5016023;28;20046;-44
2022/04/03 21:38:43;;;;;;;7.10;4.25;;;5.60;80.30;;;;;;5016184;28;20388;-47
2022/04/03 21:41:10;;;;;;;7.15;3.83;;;5.60;80.30;;;;;;5015964;28;20405;-48
2022/04/03 21:43:37;;;;;;;7.30;4.13;;;5.60;80.40;;;;;;5015557;28;20056;-48
2022/04/03 21:46:04;;;;;;;6.10;3.95;;;5.60;80.30;;;;;;5015584;28;20081;-54
2022/04/03 21:48:30;;;;;;;5.68;3.90;;;5.60;80.50;;;;;;5015846;28;20038;-44
2022/04/03 21:50:57;;;;;;;8.98;4.35;;;5.60;80.40;;;;;;5047337;28;20042;-48
2022/04/03 21:53:24;;;;;;;7.03;3.70;;;5.60;80.60;;;;;;5026138;28;20053;-45
2022/04/03 21:55:51;;;;;;;5.97;4.00;;;5.50;80.60;;;;;;5035232;28;20073;-52
2022/04/03 21:58:17;;;;;;;8.13;4.43;;;5.50;80.70;;;;;;5033856;28;20436;-49
2022/04/03 22:00:44;;;;;;;7.15;4.60;;;5.50;81.10;;;;;;5035021;28;20133;-50
2022/04/03 22:03:11;;;;;;;5.68;4.05;;;5.40;81.00;;;;;;5033713;28;20053;-48
2022/04/03 22:05:38;;;;;;;7.65;4.60;;;5.40;81.10;;;;;;5034994;28;20045;-53
2022/04/03 22:08:05;;;;;;;6.88;4.10;;;5.40;82.00;;;;;;5034843;28;20041;-49
2022/04/03 22:10:31;;;;;;;7.78;4.68;;;5.30;81.60;;;;;;5034881;28;20129;-51
2022/04/03 22:12:58;;;;;;;7.03;5.40;;;5.30;81.80;;;;;;5034533;28;20129;-49
2022/04/03 22:15:25;;;;;;;9.05;5.35;;;5.30;82.20;;;;;;5014754;28;20370;-48
2022/04/03 22:17:52;;;;;;;9.48;4.97;;;5.20;82.50;;;;;;5015063;28;20038;-49
2022/04/03 22:20:18;;;;;;;9.68;5.50;;;5.20;82.50;;;;;;5014849;28;20108;-46
2022/04/03 22:22:45;;;;;;;8.68;5.10;;;5.20;82.80;;;;;;5014942;28;20041;-52
2022/04/03 22:25:12;;;;;;;8.50;4.97;;;5.20;83.10;;;;;;5014813;28;20073;-51
2022/04/03 22:27:39;;;;;;;11.73;6.22;;;5.10;83.50;;;;;;5034693;28;20045;-51
2022/04/03 22:30:06;;;;;;;11.23;6.70;;;5.10;83.60;;;;;;5034749;28;20469;-47
2022/04/03 22:32:33;;;;;;;8.32;5.38;;;5.10;83.50;;;;;;5019795;28;20053;-51
2022/04/03 22:35:00;;;;;;;9.50;6.18;;;5.10;83.90;;;;;;5014723;28;20464;-51
2022/04/03 22:37:27;;;;;;;10.98;6.45;;;5.10;84.20;;;;;;5014890;28;20045;-47
